Pendleton, OR

21:21 PDT le 01 octobre 2014 (GMT -0700)
Sun Ridge Estates | Change Station
CLOSE
Current Station
Stations météorologiques personnelles
Location: Pendleton, OR
Altitude: 1210 ft
Stations météo à proximité

Alt. 1210 ft 45.65 °N, 118.79 °W | Updated 8 minutes ago

Ciel dégagé
Ciel dégagé
50.4 ° F
Paraît 50.4 ° F
N
0.0
Vent Variable Vent de OSO
Gusts 1.0 mph

Aujourd'hui
Haut(e) -- | Bas -- ° F
--% Risque de précip.
Hier
Haut(e) -- | Bas -- ° F
Precip. -- pouce
6:53 AM 6:35 PM
Premier quartier, 54% visible
Pression 30.08 pouce
Visibilité 10.0 Miles terrestres
Nuages Ciel dégagé
Point de rosée 38 ° F
Humidité 62%
Précipitations 0.00 pouce
Profondeur de la couche neigeuse 0 in , 0 in , 0 in
UV 0 sur 12
Pollen 4.00 sur 12
Qualité de l'air Non disponible.
Flu Activity Non disponible.
METAR KPDT 020353Z AUTO 18006KT 10SM CLR 12/02 A3009 RMK AO2 SLP185 T01220022

More Conditions Fewer Conditions

Pression 30.08 pouce
Visibilité 10.0 Miles terrestres
Nuages Ciel dégagé
Point de rosée 38 ° F
Humidité 62%
Précipitations 0.00 pouce
Profondeur de la couche neigeuse 0 in , 0 in , 0 in
UV 0 sur 12
Pollen 4.00 sur 12
Qualité de l'air Non disponible.
Flu Activity Non disponible.
METAR KPDT 020353Z AUTO 18006KT 10SM CLR 12/02 A3009 RMK AO2 SLP185 T01220022

More Conditions Fewer Conditions

10-Day Weather Forecast

Almanac

Astronomie

Oct. 01, 2014 Lever Coucher
Temps réel 06:53 PDT 18:35 PDT
Crépuscule civil 06:23 PDT 19:04 PDT
Crépuscule nautique 05:49 PDT 19:39 PDT
Crépuscule astronomique 05:14 PDT 20:13 PDT
Lune 14:11 PDT (10/1) Pas de coucher de lune
Durée de lumière visible 12h 40m
Longueur du jour
11h 41m
Tomorrow will be 3m 11s shorter.
Premier quartier, 54% of the Moon is Illuminated
Oct 2
Premier quartier
Oct 8
Pleine lune
Oct 15
Dernier quartier
Oct 23
Nouveau
Oct 30
Premier quartier

Les extrêmes de température d’hier

State Highs State Lows

Community

WunderPhotos

Upload Photos

1,758,186 Photos téléchargées !

Nearby

Épaisseur de neige

Station Depth Altitude
Mckenzie 0 in 4800 ft
Diamond Lake 0 in 5315 ft
Annie Springs 0 in 6020 ft
Peavine Ridge 0 in 3500 ft
Blazed Alder 0 in 3650 ft

Activité sismique

Ville Distance Mag. Time & Date
No recent earthquake activity has been reported nearby.
Minimum magnitude displayed is 2.5.

Températures des eaux côtières

Lieu Température
Aucun rapport de station

Stations météo à proximité